Time;durP1;ratioP1;P1;durP2;ratioP2;P2;SDS_P1;SDS_P2;PMS_P1;PMS_P2;Temp;Humidity;BMP_temperature;BMP_pressure;BME280_temperature;BME280_humidity;BME280_pressure;Samples;Min_cycle;Max_cycle;Signal;HPM_P1;HPM_P2
2023/03/27 00:00:19;;;;;;;1.60;1.40;;;;;;;8.05;nan;-24041.72;5010908;28;20310;-70
2023/03/27 00:02:48;;;;;;;2.50;1.97;;;;;;;7.89;nan;-24037.47;5012260;28;20175;-70
2023/03/27 00:05:15;;;;;;;1.87;1.70;;;;;;;8.03;nan;-24041.16;5012241;28;20261;-70
2023/03/27 00:07:41;;;;;;;1.80;1.60;;;;;;;7.90;nan;-24037.75;5011898;28;20258;-68
2023/03/27 00:10:08;;;;;;;1.90;1.70;;;;;;;8.10;nan;-24043.13;5011788;28;20264;-69
2023/03/27 00:12:33;;;;;;;2.43;2.00;;;;;;;7.88;nan;-24037.03;5011917;28;20184;-69
2023/03/27 00:14:59;;;;;;;1.87;1.60;;;;;;;7.91;nan;-24038.03;5012339;28;20180;-69
2023/03/27 00:17:25;;;;;;;1.70;1.60;;;;;;;7.82;nan;-24035.47;5011936;28;20623;-69
2023/03/27 00:19:50;;;;;;;2.47;1.80;;;;;;;7.62;nan;-24029.69;5011773;28;20192;-70
2023/03/27 00:22:16;;;;;;;1.80;1.70;;;;;;;7.58;nan;-24028.69;5011642;28;20215;-71
2023/03/27 00:24:41;;;;;;;2.00;1.80;;;;;;;7.36;nan;-24022.59;5011636;28;20184;-70
2023/03/27 00:27:08;;;;;;;2.00;1.80;;;;;;;7.30;nan;-24020.75;5011652;28;20172;-69
2023/03/27 00:29:33;;;;;;;2.37;1.93;;;;;;;7.16;nan;-24016.78;5011594;28;20183;-70
2023/03/27 00:31:59;;;;;;;3.93;2.00;;;;;;;7.30;nan;-24020.88;5011811;28;20550;-70
2023/03/27 00:34:24;;;;;;;1.93;1.63;;;;;;;6.88;nan;-24009.13;5011866;28;20175;-68
2023/03/27 00:36:50;;;;;;;2.70;1.90;;;;;;;7.19;nan;-24017.63;5011550;28;20205;-68
2023/03/27 00:39:17;;;;;;;2.17;1.97;;;;;;;6.83;nan;-24007.69;5011189;28;20172;-69
2023/03/27 00:41:43;;;;;;;3.10;2.00;;;;;;;6.80;nan;-24006.72;5011758;28;20172;-69
2023/03/27 00:44:33;;;;;;;2.87;2.00;;;;;;;6.85;nan;-24008.25;5011289;28;20647;-69
2023/03/27 00:47:01;;;;;;;4.70;2.50;;;;;;;6.93;nan;-24010.41;5011321;28;20251;-70
2023/03/27 00:49:33;;;;;;;1.87;1.73;;;;;;;6.69;nan;-24003.59;5011540;28;20172;-70
2023/03/27 00:52:02;;;;;;;2.70;2.40;;;;;;;6.79;nan;-24006.56;5012056;28;20624;-69
2023/03/27 00:54:30;;;;;;;2.43;2.23;;;;;;;6.95;nan;-24010.97;5011379;28;20260;-68
2023/03/27 00:57:00;;;;;;;5.03;1.97;;;;;;;6.78;nan;-24006.28;5011363;28;20172;-70
2023/03/27 00:59:30;;;;;;;3.70;2.27;;;;;;;6.67;nan;-24003.16;5011265;28;20198;-70
2023/03/27 01:01:57;;;;;;;4.17;2.30;;;;;;;6.91;nan;-24009.81;5015410;28;20168;-70
2023/03/27 01:04:23;;;;;;;3.10;2.40;;;;;;;6.98;nan;-24011.94;5015212;28;20719;-70
2023/03/27 01:06:51;;;;;;;5.60;2.90;;;;;;;7.04;nan;-24013.66;5015302;28;20311;-69
2023/03/27 01:09:17;;;;;;;2.43;1.70;;;;;;;6.89;nan;-24009.41;5014999;28;20183;-70
2023/03/27 01:12:01;;;;;;;2.13;1.93;;;;;;;7.35;nan;-24022.16;5015224;28;20184;-68
2023/03/27 01:14:45;;;;;;;2.43;2.20;;;;;;;7.27;nan;-24019.91;5015238;28;20341;-70
2023/03/27 01:17:28;;;;;;;3.73;2.33;;;;;;;6.97;nan;-24011.66;5015332;28;20194;-69
2023/03/27 01:20:18;;;;;;;2.80;2.20;;;;;;;7.17;nan;-24017.19;5014902;28;20695;-69
2023/03/27 01:23:15;;;;;;;2.80;2.10;;;;;;;6.98;nan;-24011.94;5015214;28;20168;-69
2023/03/27 01:26:04;;;;;;;3.23;2.20;;;;;;;7.02;nan;-24013.09;5014353;28;20172;-69
2023/03/27 01:28:57;;;;;;;7.67;2.33;;;;;;;6.96;nan;-24011.38;5014898;28;20179;-69
2023/03/27 01:32:00;;;;;;;3.40;2.30;;;;;;;7.04;nan;-24013.50;5015386;28;20212;-69
2023/03/27 01:34:56;;;;;;;3.37;1.90;;;;;;;6.92;nan;-24010.25;5014931;28;20182;-70
2023/03/27 01:37:30;;;;;;;3.33;2.03;;;;;;;6.92;nan;-24010.13;5014886;28;20664;-70
2023/03/27 01:40:31;;;;;;;3.73;2.20;;;;;;;6.93;nan;-24010.53;5014865;28;20203;-69
2023/03/27 01:43:07;;;;;;;3.10;2.37;;;;;;;6.70;nan;-24003.88;5018111;28;20655;-68
2023/03/27 01:45:46;;;;;;;4.13;2.03;;;;;;;6.81;nan;-24007.13;5014619;28;20225;-69
2023/03/27 01:48:17;;;;;;;2.90;1.97;;;;;;;7.19;nan;-24017.78;5014870;28;20175;-68
2023/03/27 01:50:50;;;;;;;3.23;2.30;;;;;;;7.13;nan;-24016.06;5014519;28;20263;-69
2023/03/27 01:53:26;;;;;;;4.80;2.70;;;;;;;7.17;nan;-24017.06;5014438;28;20168;-69
2023/03/27 01:56:05;;;;;;;2.33;2.13;;;;;;;7.20;nan;-24018.06;5014534;28;20164;-69
2023/03/27 01:58:45;;;;;;;12.80;2.17;;;;;;;7.08;nan;-24014.78;5014338;28;20226;-69
2023/03/27 02:01:17;;;;;;;2.97;2.20;;;;;;;7.15;nan;-24016.63;5014553;28;20294;-69
2023/03/27 02:03:47;;;;;;;3.63;1.90;;;;;;;7.41;nan;-24024.00;5014531;28;20183;-69
2023/03/27 02:06:17;;;;;;;3.53;2.40;;;;;;;7.37;nan;-24022.88;5014270;28;20172;-69
2023/03/27 02:08:57;;;;;;;2.37;1.97;;;;;;;7.34;nan;-24021.88;5014114;28;20188;-70
2023/03/27 02:11:28;;;;;;;4.23;2.43;;;;;;;7.06;nan;-24014.22;5013140;28;20268;-70
2023/03/27 02:14:02;;;;;;;3.23;2.50;;;;;;;7.03;nan;-24013.22;5014343;28;20180;-68
2023/03/27 02:16:32;;;;;;;1.70;1.60;;;;;;;6.82;nan;-24007.41;5014259;28;20180;-70
2023/03/27 02:19:01;;;;;;;2.03;1.87;;;;;;;6.90;nan;-24009.53;5013788;28;20168;-69
2023/03/27 02:21:30;;;;;;;2.53;2.20;;;;;;;6.34;nan;-23993.94;5013528;28;20219;-68
2023/03/27 02:23:56;;;;;;;9.67;2.23;;;;;;;6.61;nan;-24001.59;5013948;28;20172;-70
2023/03/27 02:26:21;;;;;;;3.47;2.17;;;;;;;6.44;nan;-23996.78;5013882;28;20227;-69
2023/03/27 02:29:06;;;;;;;2.80;2.30;;;;;;;6.50;nan;-23998.47;5014060;28;20205;-70
2023/03/27 02:32:02;;;;;;;3.17;2.07;;;;;;;6.60;nan;-24001.31;5013669;28;20261;-68
2023/03/27 02:34:43;;;;;;;1.77;1.67;;;;;;;6.72;nan;-24004.44;5013869;28;20226;-69
2023/03/27 02:37:24;;;;;;;1.93;1.83;;;;;;;6.36;nan;-23994.50;5013644;28;20546;-70
2023/03/27 02:40:12;;;;;;;2.37;2.10;;;;;;;6.42;nan;-23996.22;5013411;28;20202;-69
2023/03/27 02:42:56;;;;;;;2.83;2.10;;;;;;;6.11;nan;-23987.53;5013903;28;20164;-70
2023/03/27 02:45:45;;;;;;;3.27;2.30;;;;;;;6.50;nan;-23998.47;5012510;28;20214;-68
2023/03/27 02:48:21;;;;;;;2.63;2.30;;;;;;;6.42;nan;-23996.06;5013322;28;20186;-68
2023/03/27 02:50:55;;;;;;;3.67;2.57;;;;;;;6.15;nan;-23988.53;5013465;28;20276;-68
2023/03/27 02:53:23;;;;;;;4.57;2.30;;;;;;;6.60;nan;-24001.31;5013664;28;20172;-69
2023/03/27 02:55:53;;;;;;;7.53;2.47;;;;;;;6.51;nan;-23998.75;5013319;28;20183;-70
2023/03/27 02:58:29;;;;;;;2.20;2.00;;;;;;;6.47;nan;-23997.47;5013311;28;20314;-69
2023/03/27 03:00:58;;;;;;;5.03;2.13;;;;;;;6.66;nan;-24002.88;5012761;28;20191;-68
2023/03/27 03:03:36;;;;;;;2.83;2.20;;;;;;;6.90;nan;-24009.69;5028721;28;20275;-69
2023/03/27 03:06:09;;;;;;;5.77;2.40;;;;;;;6.53;nan;-23999.19;5013181;28;20180;-70
2023/03/27 03:08:38;;;;;;;2.50;1.90;;;;;;;6.93;nan;-24010.53;5012891;28;20673;-69
2023/03/27 03:11:08;;;;;;;2.77;2.40;;;;;;;6.86;nan;-24008.56;5012939;28;20220;-69
2023/03/27 03:13:33;;;;;;;4.77;2.70;;;;;;;6.60;nan;-24001.19;5012581;28;20188;-69
2023/03/27 03:15:59;;;;;;;2.80;2.10;;;;;;;7.08;nan;-24014.78;5013058;28;20175;-69
2023/03/27 03:18:25;;;;;;;3.53;2.17;;;;;;;6.99;nan;-24012.25;5012998;28;20183;-68
2023/03/27 03:20:52;;;;;;;3.43;2.20;;;;;;;7.12;nan;-24015.66;5012819;28;20204;-71
2023/03/27 03:23:20;;;;;;;3.87;2.40;;;;;;;7.49;nan;-24026.13;5005550;28;20275;-70
2023/03/27 03:25:46;;;;;;;4.67;2.20;;;;;;;7.48;nan;-24026.00;5012462;28;20184;-68
2023/03/27 03:28:12;;;;;;;4.17;2.80;;;;;;;7.05;nan;-24013.94;5012961;28;20191;-69
2023/03/27 03:30:41;;;;;;;11.33;2.30;;;;;;;7.02;nan;-24013.09;5013210;28;20187;-70
2023/03/27 03:33:08;;;;;;;2.40;1.93;;;;;;;7.24;nan;-24019.03;5011629;28;20562;-69
2023/03/27 03:35:34;;;;;;;2.10;1.90;;;;;;;7.24;nan;-24019.03;5013219;28;20612;-70
2023/03/27 03:38:00;;;;;;;4.43;2.57;;;;;;;7.17;nan;-24017.06;5012571;28;20267;-71
2023/03/27 03:40:25;;;;;;;2.33;2.13;;;;;;;7.27;nan;-24019.91;5012291;28;20200;-68
2023/03/27 03:42:51;;;;;;;3.87;2.17;;;;;;;7.35;nan;-24022.31;5012727;28;20714;-71
2023/03/27 03:45:18;;;;;;;5.43;2.10;;;;;;;7.89;nan;-24037.47;5012348;28;20183;-69
2023/03/27 03:47:44;;;;;;;2.97;2.23;;;;;;;7.72;nan;-24032.66;5012404;28;20243;-69
2023/03/27 03:50:11;;;;;;;9.00;2.40;;;;;;;7.68;nan;-24031.53;5012100;28;20318;-68
2023/03/27 03:52:37;;;;;;;2.23;2.03;;;;;;;7.75;nan;-24033.38;5012240;28;20283;-69
2023/03/27 03:55:03;;;;;;;3.00;2.20;;;;;;;7.81;nan;-24035.06;5010618;28;20714;-68
2023/03/27 03:57:29;;;;;;;3.97;2.37;;;;;;;7.60;nan;-24029.09;5011911;28;20282;-69
2023/03/27 03:59:57;;;;;;;3.17;2.27;;;;;;;7.32;nan;-24021.31;5012010;28;20195;-70
2023/03/27 04:02:29;;;;;;;3.20;2.00;;;;;;;7.34;nan;-24022.03;5010424;28;20180;-68
2023/03/27 04:04:58;;;;;;;2.57;2.20;;;;;;;7.50;nan;-24026.41;5011935;28;20226;-68
2023/03/27 04:07:30;;;;;;;2.80;2.20;;;;;;;7.28;nan;-24020.19;5012078;28;20207;-69
2023/03/27 04:09:58;;;;;;;5.53;2.10;;;;;;;7.44;nan;-24024.72;5012163;28;20184;-69
2023/03/27 04:12:25;;;;;;;3.87;1.90;;;;;;;7.21;nan;-24018.34;5011661;28;20169;-69
2023/03/27 04:14:50;;;;;;;4.97;2.70;;;;;;;7.48;nan;-24026.00;5011812;28;20168;-70
2023/03/27 04:17:16;;;;;;;3.13;2.27;;;;;;;7.41;nan;-24024.00;5011539;28;20179;-70
2023/03/27 04:19:45;;;;;;;3.43;2.47;;;;;;;7.49;nan;-24026.13;5011389;28;20192;-69
2023/03/27 04:22:11;;;;;;;5.53;2.57;;;;;;;7.48;nan;-24026.00;5011557;28;20190;-70
2023/03/27 04:24:37;;;;;;;2.83;2.53;;;;;;;7.18;nan;-24017.47;5011931;28;20187;-68
2023/03/27 04:27:04;;;;;;;4.30;3.03;;;;;;;7.42;nan;-24024.16;5011662;28;20176;-70
2023/03/27 04:29:30;;;;;;;2.80;2.33;;;;;;;7.69;nan;-24031.66;5011288;28;20179;-69
2023/03/27 04:31:56;;;;;;;5.93;2.53;;;;;;;7.87;nan;-24036.75;5011549;28;20179;-70
2023/03/27 04:34:23;;;;;;;4.73;2.60;;;;;;;7.68;nan;-24031.53;5011269;28;20169;-70
2023/03/27 04:36:49;;;;;;;3.53;2.43;;;;;;;7.75;nan;-24033.50;5011288;28;20236;-69
2023/03/27 04:39:16;;;;;;;3.00;2.27;;;;;;;7.97;nan;-24039.72;5011756;28;20211;-72
2023/03/27 04:41:44;;;;;;;2.90;2.20;;;;;;;7.53;nan;-24027.41;5011427;28;20267;-68
2023/03/27 04:44:10;;;;;;;2.93;2.20;;;;;;;7.52;nan;-24026.97;5011154;28;20179;-68
2023/03/27 04:46:35;;;;;;;5.10;3.53;;;;;;;7.66;nan;-24030.81;5011501;28;20176;-72
2023/03/27 04:49:01;;;;;;;5.03;2.90;;;;;;;7.79;nan;-24034.63;5011416;28;20263;-71
2023/03/27 04:51:31;;;;;;;4.90;3.13;;;;;;;7.77;nan;-24034.06;5011006;28;20190;-72
2023/03/27 04:53:56;;;;;;;4.30;2.83;;;;;;;7.32;nan;-24021.31;5003118;28;20173;-69
2023/03/27 04:56:22;;;;;;;3.77;2.70;;;;;;;7.70;nan;-24031.94;5006946;28;20647;-71
2023/03/27 04:58:47;;;;;;;4.53;2.53;;;;;;;7.44;nan;-24024.72;5010733;28;20222;-69
2023/03/27 05:01:13;;;;;;;5.23;3.00;;;;;;;7.62;nan;-24029.81;5009943;28;20203;-69
2023/03/27 05:03:39;;;;;;;4.13;2.47;;;;;;;7.24;nan;-24019.19;5010591;28;20190;-69
2023/03/27 05:06:05;;;;;;;4.33;2.50;;;;;;;7.23;nan;-24018.91;5011227;28;20199;-71
2023/03/27 05:08:31;;;;;;;6.73;3.07;;;;;;;7.57;nan;-24028.41;5011242;28;20216;-72
2023/03/27 05:10:57;;;;;;;3.40;2.67;;;;;;;7.59;nan;-24028.97;5011392;28;20168;-70
2023/03/27 05:13:22;;;;;;;7.07;2.70;;;;;;;8.08;nan;-24042.56;5011098;28;20265;-69
2023/03/27 05:15:48;;;;;;;3.80;2.53;;;;;;;8.16;nan;-24044.97;5007820;28;20596;-69
2023/03/27 05:18:14;;;;;;;5.10;3.10;;;;;;;8.20;nan;-24045.97;5019462;28;20192;-69
2023/03/27 05:20:40;;;;;;;5.23;2.90;;;;;;;8.79;nan;-24062.53;4993507;28;20715;-70
2023/03/27 05:23:05;;;;;;;7.07;3.63;;;;;;;8.97;nan;-24067.63;5010930;28;20176;-70
2023/03/27 05:25:32;;;;;;;14.30;4.20;;;;;;;9.11;nan;-24071.44;5010808;28;20195;-70
2023/03/27 05:27:59;;;;;;;13.20;4.67;;;;;;;8.96;nan;-24067.19;5009143;28;20218;-70
2023/03/27 05:30:25;;;;;;;19.57;5.13;;;;;;;8.95;nan;-24067.06;5010064;28;20749;-71
2023/03/27 05:32:52;;;;;;;7.03;3.73;;;;;;;8.91;nan;-24065.78;5010442;28;20165;-69
2023/03/27 05:35:20;;;;;;;5.37;3.63;;;;;;;9.13;nan;-24072.00;5010705;28;20659;-70
2023/03/27 05:37:47;;;;;;;5.63;3.60;;;;;;;8.81;nan;-24063.09;5008596;28;20180;-73
2023/03/27 05:40:19;;;;;;;3.73;3.13;;;;;;;9.29;nan;-24076.66;5010408;28;20279;-71
2023/03/27 05:42:45;;;;;;;6.93;4.47;;;;;;;9.47;nan;-24081.47;5011126;28;20310;-70
2023/03/27 05:45:11;;;;;;;8.93;4.10;;;;;;;9.62;nan;-24085.84;5011105;28;20192;-70
2023/03/27 05:47:54;;;;;;;6.93;4.60;;;;;;;9.12;nan;-24071.88;5013477;28;20176;-69
2023/03/27 05:50:24;;;;;;;10.33;4.60;;;;;;;8.46;nan;-24053.19;5014231;28;20247;-71
2023/03/27 05:52:57;;;;;;;6.60;4.37;;;;;;;9.85;nan;-24092.22;5014019;28;20176;-69
2023/03/27 05:55:24;;;;;;;8.60;4.83;;;;;;;9.93;nan;-24094.34;5013867;28;20249;-69
2023/03/27 05:57:50;;;;;;;10.53;5.20;;;;;;;9.82;nan;-24091.38;5013979;28;20220;-72
2023/03/27 06:00:21;;;;;;;7.93;4.57;;;;;;;10.33;nan;-24105.63;5013878;28;20249;-69
2023/03/27 06:02:48;;;;;;;10.17;5.67;;;;;;;10.59;nan;-24112.81;5014150;28;20243;-71
2023/03/27 06:05:14;;;;;;;7.20;4.33;;;;;;;10.61;nan;-24113.53;5013732;28;20156;-72
2023/03/27 06:07:41;;;;;;;9.97;5.40;;;;;;;10.56;nan;-24111.97;5010817;28;20265;-71
2023/03/27 06:10:07;;;;;;;11.50;5.40;;;;;;;10.06;nan;-24098.00;5012282;28;20714;-70
2023/03/27 06:12:35;;;;;;;9.90;5.03;;;;;;;10.07;nan;-24098.28;5013412;28;20214;-71
2023/03/27 06:15:02;;;;;;;7.07;4.33;;;;;;;10.24;nan;-24103.09;5013860;28;20168;-71
2023/03/27 06:17:28;;;;;;;7.77;4.83;;;;;;;10.07;nan;-24098.28;5012335;28;20635;-71
2023/03/27 06:19:53;;;;;;;7.30;4.53;;;;;;;9.94;nan;-24094.63;5013467;28;20219;-73
2023/03/27 06:22:19;;;;;;;7.83;4.53;;;;;;;9.97;nan;-24095.47;5013691;28;20632;-71
2023/03/27 06:24:44;;;;;;;8.60;5.00;;;;;;;9.50;nan;-24082.47;5011119;28;20335;-69
2023/03/27 06:27:09;;;;;;;6.37;5.10;;;;;;;9.76;nan;-24089.81;5012726;28;20191;-69
2023/03/27 06:29:36;;;;;;;7.47;4.73;;;;;;;9.57;nan;-24084.31;5013559;28;20172;-70
2023/03/27 06:32:03;;;;;;;7.73;5.30;;;;;;;9.46;nan;-24081.34;5013293;28;20190;-69
2023/03/27 06:34:28;;;;;;;8.50;4.80;;;;;;;9.57;nan;-24084.31;5013274;28;20268;-71
2023/03/27 06:36:53;;;;;;;8.63;5.83;;;;;;;10.18;nan;-24101.53;5011712;28;20565;-71
2023/03/27 06:39:19;;;;;;;8.83;5.17;;;;;;;10.49;nan;-24110.16;5013368;28;20242;-70
2023/03/27 06:41:44;;;;;;;11.57;5.57;;;;;;;10.30;nan;-24104.66;5012817;28;20200;-70
2023/03/27 06:44:10;;;;;;;10.87;5.53;;;;;;;10.54;nan;-24111.41;5012925;28;20172;-71
2023/03/27 06:46:36;;;;;;;8.27;5.25;;;;;;;11.13;nan;-24127.91;5012561;28;20215;-69
2023/03/27 06:49:01;;;;;;;8.13;4.78;;;;;;;11.21;nan;-24130.03;5012763;28;20179;-70
2023/03/27 06:51:26;;;;;;;9.43;5.40;;;;;;;11.89;nan;-24149.19;5012707;28;20180;-71
2023/03/27 06:53:52;;;;;;;8.50;5.30;;;;;;;12.31;nan;-24160.88;5012699;28;20564;-71
2023/03/27 06:56:18;;;;;;;11.30;5.50;;;;;;;12.49;nan;-24165.66;5011404;28;20172;-70
2023/03/27 06:58:44;;;;;;;9.18;5.47;;;;;;;12.37;nan;-24162.56;5011761;28;20227;-71
2023/03/27 07:01:10;;;;;;;9.23;4.95;;;;;;;12.32;nan;-24161.03;5010237;28;20265;-70
2023/03/27 07:03:37;;;;;;;10.60;5.28;;;;;;;12.70;nan;-24171.56;5011629;28;20303;-70
2023/03/27 07:06:03;;;;;;;8.68;4.88;;;;;;;13.02;nan;-24180.56;5012231;28;20164;-71
2023/03/27 07:08:29;;;;;;;12.88;6.03;;;;;;;12.97;nan;-24179.03;5011096;28;20191;-71
2023/03/27 07:10:55;;;;;;;8.20;4.93;;;;;;;13.25;nan;-24187.03;5012390;28;20165;-71
2023/03/27 07:13:20;;;;;;;13.10;6.10;;;;;;;12.59;nan;-24168.63;5012913;28;20616;-70
2023/03/27 07:15:45;;;;;;;12.13;5.15;;;;;;;13.00;nan;-24180.00;5012737;28;20176;-70
2023/03/27 07:18:11;;;;;;;12.55;5.68;;;;;;;13.11;nan;-24183.09;5011755;28;20180;-72
2023/03/27 07:20:37;;;;;;;10.15;5.72;;;;;;;13.16;nan;-24184.50;5012624;28;20253;-72
2023/03/27 07:23:03;;;;;;;8.82;5.20;;;;;;;13.21;nan;-24185.78;5012668;28;20176;-69
2023/03/27 07:25:36;;;;;;;10.82;5.60;;;;;;;13.27;nan;-24187.59;5012523;28;20172;-71
2023/03/27 07:28:08;;;;;;;12.45;5.30;;;;;;;12.98;nan;-24179.31;5012865;28;20187;-69
2023/03/27 07:30:34;;;;;;;13.82;6.40;;;;;;;13.39;nan;-24190.69;5012790;28;20167;-72
2023/03/27 07:33:01;;;;;;;10.65;5.20;;;;;;;13.72;nan;-24199.97;5012779;28;20171;-69
2023/03/27 07:35:26;;;;;;;12.50;5.35;;;;;;;13.24;nan;-24186.75;5011197;28;20543;-69
2023/03/27 07:37:53;;;;;;;11.27;5.43;;;;;;;13.37;nan;-24190.13;5012140;28;20182;-72
2023/03/27 07:40:21;;;;;;;9.73;5.53;;;;;;;13.92;nan;-24205.44;5012479;28;20208;-73
2023/03/27 07:42:47;;;;;;;11.18;5.18;;;;;;;;;;5012057;28;20168;-71
2023/03/27 07:45:13;;;;;;;10.23;5.90;;;;;;;14.00;nan;-24207.81;5012378;28;20202;-70
2023/03/27 07:47:40;;;;;;;8.13;5.30;;;;;;;13.54;nan;-24195.03;5011988;28;20168;-71
2023/03/27 07:50:08;;;;;;;8.60;4.85;;;;;;;13.20;nan;-24185.63;5012495;28;20191;-69
2023/03/27 07:52:35;;;;;;;9.40;4.95;;;;;;;12.95;nan;-24178.59;5012510;28;20178;-68
2023/03/27 07:55:01;;;;;;;13.48;5.72;;;;;;;13.10;nan;-24182.81;5012010;28;20168;-71
2023/03/27 07:57:26;;;;;;;11.32;5.85;;;;;;;13.42;nan;-24191.66;5011848;28;20379;-70
2023/03/27 07:59:53;;;;;;;9.95;5.50;;;;;;;13.40;nan;-24190.97;5012073;28;20282;-70
2023/03/27 08:02:18;;;;;;;12.63;5.78;;;;;;;12.85;nan;-24175.78;5012159;28;20187;-69
2023/03/27 08:04:44;;;;;;;11.85;5.57;;;;;;;13.03;nan;-24180.84;5012295;28;20168;-69
2023/03/27 08:07:10;;;;;;;10.60;5.20;;;;;;;13.35;nan;-24189.72;5027087;28;20207;-70
2023/03/27 08:09:35;;;;;;;10.27;5.28;;;;;;;13.36;nan;-24190.00;5011991;28;20172;-71
2023/03/27 08:12:02;;;;;;;11.50;6.53;;;;;;;13.36;nan;-24189.84;5011787;28;20187;-71
2023/03/27 08:14:28;;;;;;;11.07;5.95;;;;;;;13.03;nan;-24180.84;5011792;28;20600;-71
2023/03/27 08:16:53;;;;;;;10.70;5.82;;;;;;;12.60;nan;-24168.91;5012020;28;20167;-70
2023/03/27 08:19:20;;;;;;;9.88;5.53;;;;;;;12.84;nan;-24175.50;5011516;28;20167;-69
2023/03/27 08:21:45;;;;;;;11.27;4.90;;;;;;;12.72;nan;-24172.28;5011556;28;20208;-71
2023/03/27 08:24:11;;;;;;;9.15;5.38;;;;;;;12.90;nan;-24177.06;5011710;28;20176;-71
2023/03/27 08:26:37;;;;;;;11.20;6.07;;;;;;;12.66;nan;-24170.59;5012034;28;20184;-71
2023/03/27 08:29:02;;;;;;;12.15;6.60;;;;;;;12.36;nan;-24162.16;5011793;28;20595;-70
2023/03/27 08:31:30;;;;;;;11.93;6.05;;;;;;;12.96;nan;-24178.88;5011848;28;20171;-72
2023/03/27 08:33:55;;;;;;;11.18;5.65;;;;;;;12.84;nan;-24175.66;5011435;28;20171;-68
2023/03/27 08:36:21;;;;;;;11.45;6.38;;;;;;;12.96;nan;-24178.75;5011268;28;20769;-70
2023/03/27 08:38:47;;;;;;;14.05;7.15;;;;;;;13.41;nan;-24191.25;5011585;28;20333;-71
2023/03/27 08:41:40;;;;;;;10.48;6.00;;;;;;;13.22;nan;-24186.19;5011619;28;20702;-70
2023/03/27 08:44:12;;;;;;;13.88;6.50;;;;;;;14.00;nan;-24207.81;5011308;28;20152;-72
2023/03/27 08:46:47;;;;;;;13.77;6.43;;;;;;;14.57;nan;-24223.53;5010806;28;20187;-68
2023/03/27 08:49:16;;;;;;;13.15;6.18;;;;;;;14.98;nan;-24235.03;5011680;28;20167;-69
2023/03/27 08:51:53;;;;;;;16.58;6.85;;;;;;;15.28;nan;-24243.16;5011246;28;20172;-70
2023/03/27 08:54:29;;;;;;;12.55;7.22;;;;;;;15.41;nan;-24246.94;5026033;28;20530;-72
2023/03/27 08:56:54;;;;;;;12.60;7.05;;;;;;;15.79;nan;-24257.44;5011265;28;20662;-70
2023/03/27 08:59:23;;;;;;;14.80;7.18;;;;;;;16.39;nan;-24273.94;5011392;28;20157;-71
2023/03/27 09:02:18;;;;;;;14.20;6.60;;;;;;;16.14;nan;-24266.94;5010141;28;20214;-68
2023/03/27 09:05:03;;;;;;;13.65;6.38;;;;;;;16.29;nan;-24271.13;5011114;28;20175;-72
2023/03/27 09:07:44;;;;;;;11.57;5.78;;;;;;;16.40;nan;-24274.22;5011178;28;20247;-71
2023/03/27 09:10:24;;;;;;;10.35;5.82;;;;;;;16.39;nan;-24273.94;5011456;28;20183;-71
2023/03/27 09:13:06;;;;;;;13.07;5.50;;;;;;;17.12;nan;-24294.19;5011773;28;20169;-69
2023/03/27 09:15:39;;;;;;;11.05;5.75;;;;;;;17.43;nan;-24302.56;5011405;28;20203;-71
2023/03/27 09:18:38;;;;;;;12.25;5.45;;;;;;;17.27;nan;-24298.09;5010810;28;20242;-70
2023/03/27 09:21:16;;;;;;;11.63;5.50;;;;;;;18.08;nan;-24320.72;5020601;28;20215;-70
2023/03/27 09:23:45;;;;;;;8.85;5.20;;;;;;;18.32;nan;-24327.25;5015122;28;20202;-71
2023/03/27 09:26:33;;;;;;;10.73;5.70;;;;;;;18.83;nan;-24341.19;5014417;28;20259;-70
2023/03/27 09:29:20;;;;;;;8.27;4.85;;;;;;;19.02;nan;-24346.34;5015464;28;20168;-68
2023/03/27 09:31:50;;;;;;;10.45;5.45;;;;;;;19.61;nan;-24362.63;5014791;28;20188;-70
2023/03/27 09:34:25;;;;;;;8.45;4.50;;;;;;;20.38;nan;-24383.75;5014386;28;20258;-70
2023/03/27 09:36:51;;;;;;;7.13;4.45;;;;;;;20.84;nan;-24396.38;5013704;28;20210;-72
2023/03/27 09:39:21;;;;;;;8.20;4.82;;;;;;;20.79;nan;-24394.97;5013681;28;20212;-70
2023/03/27 09:41:49;;;;;;;9.23;4.32;;;;;;;21.13;nan;-24404.56;5014039;28;20208;-71
2023/03/27 09:44:24;;;;;;;9.05;4.85;;;;;;;21.29;nan;-24408.84;5014549;28;20630;-71
2023/03/27 09:46:56;;;;;;;9.30;4.88;;;;;;;21.41;nan;-24412.03;5014373;28;20646;-70
2023/03/27 09:49:22;;;;;;;8.95;4.30;;;;;;;21.59;nan;-24417.16;5013631;28;20157;-68
2023/03/27 09:51:50;;;;;;;9.18;4.70;;;;;;;21.78;nan;-24422.28;5013744;28;20184;-69
2023/03/27 09:54:18;;;;;;;6.68;4.07;;;;;;;21.59;nan;-24417.16;5013796;28;20212;-68
2023/03/27 09:56:54;;;;;;;10.77;4.93;;;;;;;21.47;nan;-24413.69;5013422;28;20263;-71
2023/03/27 09:59:29;;;;;;;9.85;4.90;;;;;;;21.06;nan;-24402.47;5010965;28;20590;-72
2023/03/27 10:01:57;;;;;;;11.30;5.80;;;;;;;20.63;nan;-24390.69;5013739;28;20574;-68
2023/03/27 10:04:25;;;;;;;7.28;4.82;;;;;;;20.29;nan;-24381.50;5013591;28;20282;-72
2023/03/27 10:07:01;;;;;;;9.85;5.70;;;;;;;20.26;nan;-24380.53;5014154;28;20180;-72
2023/03/27 10:09:36;;;;;;;9.38;5.47;;;;;;;19.47;nan;-24358.72;5013039;28;20184;-71
2023/03/27 10:12:06;;;;;;;12.43;6.20;;;;;;;19.48;nan;-24359.13;5013499;28;20175;-68
2023/03/27 10:14:42;;;;;;;14.95;5.75;;;;;;;19.33;nan;-24355.09;5013439;28;20204;-72
2023/03/27 10:17:26;;;;;;;11.18;5.57;;;;;;;19.48;nan;-24359.00;5013219;28;20172;-69
2023/03/27 10:19:58;;;;;;;13.82;5.68;;;;;;;19.83;nan;-24368.88;5013238;28;20184;-67
2023/03/27 10:22:23;;;;;;;10.10;5.45;;;;;;;19.77;nan;-24367.06;5013196;28;20636;-70
2023/03/27 10:24:52;;;;;;;13.02;5.78;;;;;;;20.12;nan;-24376.78;5012609;28;20211;-70
2023/03/27 10:27:25;;;;;;;11.63;5.68;;;;;;;20.14;nan;-24377.34;5012852;28;20182;-68
2023/03/27 10:29:53;;;;;;;9.52;5.32;;;;;;;20.06;nan;-24375.00;5012824;28;20179;-70
2023/03/27 10:32:43;;;;;;;13.43;6.13;;;;;;;19.74;nan;-24366.38;5012627;28;20537;-69
2023/03/27 10:35:24;;;;;;;14.52;5.93;;;;;;;19.59;nan;-24362.06;5012615;28;20180;-71
2023/03/27 10:37:53;;;;;;;11.15;5.40;;;;;;;19.09;nan;-24348.28;5011383;28;20187;-69
2023/03/27 10:40:23;;;;;;;8.32;4.93;;;;;;;19.36;nan;-24355.94;5012308;28;20204;-70
2023/03/27 10:42:49;;;;;;;11.93;5.68;;;;;;;19.43;nan;-24357.75;5012798;28;20648;-71
2023/03/27 10:45:18;;;;;;;10.75;5.15;;;;;;;19.48;nan;-24359.00;5012228;28;20570;-72
2023/03/27 10:47:49;;;;;;;11.10;6.10;;;;;;;19.59;nan;-24362.06;5012118;28;20246;-70
2023/03/27 10:50:20;;;;;;;9.50;5.05;;;;;;;19.96;nan;-24372.34;5012350;28;20164;-71
2023/03/27 10:52:54;;;;;;;11.88;5.35;;;;;;;19.87;nan;-24369.72;5013156;28;20226;-71
2023/03/27 10:55:47;;;;;;;10.18;5.57;;;;;;;19.45;nan;-24358.16;5012576;28;20202;-70
2023/03/27 10:58:19;;;;;;;9.05;4.75;;;;;;;19.31;nan;-24354.41;5012520;28;20227;-70
2023/03/27 11:00:53;;;;;;;8.75;4.35;;;;;;;19.31;nan;-24354.53;5012519;28;20200;-70
2023/03/27 11:03:29;;;;;;;8.93;4.40;;;;;;;19.08;nan;-24348.16;5012328;28;20639;-71
2023/03/27 11:05:57;;;;;;;10.05;4.60;;;;;;;19.07;nan;-24347.88;5012459;28;20199;-69
2023/03/27 11:08:47;;;;;;;13.10;5.50;;;;;;;19.65;nan;-24363.72;5012472;28;20176;-69
2023/03/27 11:11:20;;;;;;;8.00;4.97;;;;;;;20.14;nan;-24377.34;5011952;28;20188;-71
2023/03/27 11:13:46;;;;;;;10.35;4.75;;;;;;;20.84;nan;-24396.50;5012443;28;20243;-71
2023/03/27 11:16:24;;;;;;;12.07;4.80;;;;;;;21.31;nan;-24409.41;5012641;28;20271;-70
2023/03/27 11:18:55;;;;;;;7.03;4.40;;;;;;;21.47;nan;-24413.69;5011216;28;20643;-69
2023/03/27 11:21:42;;;;;;;6.65;3.83;;;;;;;21.40;nan;-24411.75;5011875;28;20231;-69
2023/03/27 11:24:49;;;;;;;8.20;4.57;;;;;;;21.50;nan;-24414.53;5011827;28;20278;-66
2023/03/27 11:27:29;;;;;;;11.63;4.90;;;;;;;21.51;nan;-24414.94;5017735;28;20600;-69
2023/03/27 11:30:07;;;;;;;6.75;4.15;;;;;;;21.21;nan;-24406.50;5012143;28;20207;-65
2023/03/27 11:32:48;;;;;;;6.88;4.00;;;;;;;20.96;nan;-24399.69;5012210;28;20310;-68
2023/03/27 11:35:23;;;;;;;6.35;4.07;;;;;;;21.36;nan;-24410.66;5010712;28;20176;-67
2023/03/27 11:37:58;;;;;;;5.25;3.47;;;;;;;21.00;nan;-24400.94;5012249;28;20168;-67
2023/03/27 11:40:29;;;;;;;5.75;3.85;;;;;;;21.13;nan;-24404.41;5012200;28;20214;-66
2023/03/27 11:42:55;;;;;;;5.05;3.42;;;;;;;20.98;nan;-24400.38;5012373;28;20164;-65
2023/03/27 11:45:40;;;;;;;5.15;3.35;;;;;;;20.84;nan;-24396.50;5011503;28;20188;-67
2023/03/27 11:48:26;;;;;;;6.03;3.45;;;;;;;20.99;nan;-24400.53;5012250;28;20706;-68
2023/03/27 11:50:57;;;;;;;5.82;3.20;;;;;;;20.91;nan;-24398.31;5014067;28;20187;-69
2023/03/27 11:53:42;;;;;;;4.07;2.78;;;;;;;21.67;nan;-24419.25;5012083;28;20176;-68
2023/03/27 11:56:10;;;;;;;4.03;2.90;;;;;;;21.73;nan;-24420.91;5012261;28;20176;-69
2023/03/27 11:58:55;;;;;;;5.55;3.30;;;;;;;21.62;nan;-24417.84;5012313;28;20228;-65
2023/03/27 12:01:38;;;;;;;7.38;3.10;;;;;;;21.48;nan;-24413.97;5011963;28;20203;-67